createdAt,value
2023-01-21T00:00:57.395Z,-3.97
2023-01-21T00:04:01.066Z,-3.81
2023-01-21T00:07:06.439Z,-4.43
2023-01-21T00:10:11.145Z,-4.12
2023-01-21T00:13:14.621Z,-3.73
2023-01-21T00:16:18.162Z,-4.01
2023-01-21T00:19:21.557Z,-3.61
2023-01-21T00:22:30.736Z,-4.06
2023-01-21T00:25:34.236Z,-3.77
2023-01-21T00:28:38.332Z,-3.88
2023-01-21T00:31:41.922Z,-4.01
2023-01-21T00:34:45.296Z,-3.35
2023-01-21T00:37:52.143Z,-3.94
2023-01-21T00:41:00.826Z,-3.97
2023-01-21T00:44:05.216Z,-4.00
2023-01-21T00:47:08.645Z,-3.81
2023-01-21T00:50:12.797Z,-3.78
2023-01-21T00:53:17.579Z,-3.85
2023-01-21T00:56:21.207Z,-3.83
2023-01-21T00:59:25.503Z,-3.40
2023-01-21T01:02:29.027Z,-3.77
2023-01-21T01:05:33.281Z,-4.03
2023-01-21T01:08:39.022Z,-3.94
2023-01-21T01:11:42.598Z,-3.98
2023-01-21T01:14:45.941Z,-4.08
2023-01-21T01:17:49.410Z,-4.02
2023-01-21T01:20:52.937Z,-3.90
2023-01-21T01:24:00.693Z,-4.02
2023-01-21T01:27:04.096Z,-3.71
2023-01-21T01:30:09.027Z,-3.54
2023-01-21T01:33:12.421Z,-3.96
2023-01-21T01:36:17.728Z,-3.68
2023-01-21T01:39:22.545Z,-4.08
2023-01-21T01:42:26.279Z,-3.70
2023-01-21T01:45:29.720Z,-3.89
2023-01-21T01:48:33.799Z,-3.89
2023-01-21T01:51:44.234Z,-3.87
2023-01-21T01:54:53.825Z,-3.68
2023-01-21T01:57:58.110Z,-3.74
2023-01-21T02:01:01.606Z,-3.80
2023-01-21T02:04:09.441Z,-3.67
2023-01-21T02:07:13.339Z,-3.44
2023-01-21T02:10:21.651Z,-3.21
2023-01-21T02:13:27.610Z,-3.50
2023-01-21T02:17:05.840Z,-3.45
2023-01-21T02:20:31.552Z,-3.51
2023-01-21T02:23:58.411Z,-3.41
2023-01-21T02:27:32.675Z,-3.37
2023-01-21T02:30:48.256Z,-3.68
2023-01-21T02:34:13.816Z,-3.59
2023-01-21T02:37:25.707Z,-3.89
2023-01-21T02:40:38.231Z,-3.89
2023-01-21T02:43:51.493Z,-3.96
2023-01-21T02:47:02.578Z,-3.88
2023-01-21T02:50:15.504Z,-3.94
2023-01-21T02:53:25.634Z,-3.99
2023-01-21T02:56:29.033Z,-3.94
2023-01-21T02:59:33.758Z,-3.98
2023-01-21T03:03:02.015Z,-3.98
2023-01-21T03:06:44.241Z,-4.06
2023-01-21T03:09:49.564Z,-4.05
2023-01-21T03:13:01.320Z,-4.21
2023-01-21T03:16:25.943Z,-4.11
2023-01-21T03:19:36.778Z,-4.21
2023-01-21T03:22:41.222Z,-4.21
2023-01-21T03:25:48.631Z,-4.18
2023-01-21T03:28:56.224Z,-4.18
2023-01-21T03:32:05.145Z,-4.22
2023-01-21T03:35:11.584Z,-4.04
2023-01-21T03:38:19.452Z,-4.46
2023-01-21T03:41:32.072Z,-4.02
2023-01-21T03:44:36.212Z,-4.07
2023-01-21T03:47:42.392Z,-3.99
2023-01-21T03:50:51.591Z,-3.83
2023-01-21T03:53:57.788Z,-3.98
2023-01-21T03:57:02.529Z,-3.92
2023-01-21T04:00:08.144Z,-3.76
2023-01-21T04:03:11.615Z,-3.80
2023-01-21T04:06:15.823Z,-3.86
2023-01-21T04:09:19.192Z,-3.62
2023-01-21T04:12:24.000Z,-3.64
2023-01-21T04:15:27.679Z,-3.80
2023-01-21T04:18:31.158Z,-3.83
2023-01-21T04:21:34.608Z,-3.72
2023-01-21T04:24:38.060Z,-3.69
2023-01-21T04:27:42.823Z,-3.64
2023-01-21T04:34:18.520Z,-3.66
2023-01-21T04:37:21.974Z,-3.81
2023-01-21T04:40:25.411Z,-3.67
2023-01-21T04:43:29.035Z,-3.64
2023-01-21T04:46:32.657Z,-3.74
2023-01-21T04:49:37.787Z,-3.66
2023-01-21T04:52:41.901Z,-3.39
2023-01-21T04:55:45.362Z,-3.70
2023-01-21T04:58:48.778Z,-3.36
2023-01-21T05:01:52.434Z,-3.68
2023-01-21T05:04:57.292Z,-3.58
2023-01-21T05:08:00.759Z,-3.67
2023-01-21T05:11:04.246Z,-3.53
2023-01-21T05:14:07.630Z,-3.61
2023-01-21T05:17:11.029Z,-3.55
2023-01-21T05:20:16.348Z,-3.50
2023-01-21T05:23:19.887Z,-3.69
2023-01-21T05:26:23.570Z,-3.58
2023-01-21T05:29:26.986Z,-3.27
2023-01-21T05:32:30.349Z,-3.48
2023-01-21T05:35:36.332Z,-3.53
2023-01-21T05:38:40.021Z,-3.52
2023-01-21T05:41:43.556Z,-3.47
2023-01-21T05:44:46.998Z,-3.55
2023-01-21T05:47:50.379Z,-3.53
2023-01-21T05:50:58.045Z,-3.50
2023-01-21T05:54:01.967Z,-3.59
2023-01-21T05:57:05.501Z,-4.06
2023-01-21T06:00:10.381Z,-3.74
2023-01-21T06:03:13.863Z,-3.86
2023-01-21T06:06:18.662Z,-3.48
2023-01-21T06:09:22.074Z,-3.47
2023-01-21T06:12:25.591Z,-3.38
2023-01-21T06:15:29.658Z,-3.46
2023-01-21T06:18:33.233Z,-3.42
2023-01-21T06:21:38.072Z,-3.46
2023-01-21T06:24:41.588Z,-3.43
2023-01-21T06:27:44.968Z,-3.40
2023-01-21T06:30:48.504Z,-3.35
2023-01-21T06:33:52.021Z,-3.30
2023-01-21T06:36:56.806Z,-3.35
2023-01-21T06:40:00.196Z,-3.27
2023-01-21T06:43:04.015Z,-3.27
2023-01-21T06:46:07.616Z,-3.48
2023-01-21T06:49:11.021Z,-3.34
2023-01-21T06:52:15.798Z,-3.23
2023-01-21T06:55:20.478Z,-3.22
2023-01-21T06:58:24.319Z,-3.33
2023-01-21T07:01:29.284Z,-3.33
2023-01-21T07:04:35.864Z,-3.34
2023-01-21T07:07:40.736Z,-3.49
2023-01-21T07:10:47.576Z,-3.17
2023-01-21T07:13:51.115Z,-3.15
2023-01-21T07:16:55.185Z,-3.17
2023-01-21T07:19:58.613Z,-2.58
2023-01-21T07:23:03.341Z,-3.04
2023-01-21T07:26:08.271Z,-3.05
2023-01-21T07:34:50.016Z,-2.98
2023-01-21T07:37:53.377Z,-2.96
2023-01-21T07:40:58.148Z,-2.95
2023-01-21T07:44:01.571Z,-3.41
2023-01-21T07:47:06.553Z,-2.83
2023-01-21T07:50:10.984Z,-2.81
2023-01-21T07:53:14.758Z,-2.85
2023-01-21T07:56:20.423Z,-2.80
2023-01-21T07:59:23.984Z,-2.90
2023-01-21T08:02:28.346Z,-2.57
2023-01-21T08:05:31.847Z,-2.73
2023-01-21T08:08:36.048Z,-2.64
2023-01-21T08:11:41.189Z,-4.32
2023-01-21T08:14:44.816Z,-2.54
2023-01-21T08:17:48.843Z,-2.39
2023-01-21T08:20:56.598Z,-2.67
2023-01-21T08:24:00.410Z,-2.54
2023-01-21T08:27:05.336Z,-2.42
2023-01-21T08:30:11.911Z,-2.61
2023-01-21T08:33:16.379Z,-2.62
2023-01-21T08:36:20.515Z,-2.57
2023-01-21T08:39:23.972Z,-2.98
2023-01-21T08:42:28.845Z,-2.58
2023-01-21T08:45:35.316Z,-2.49
2023-01-21T08:48:39.218Z,-2.19
2023-01-21T08:51:44.261Z,-2.45
2023-01-21T08:54:50.489Z,-2.45
2023-01-21T08:57:56.561Z,-3.14
2023-01-21T09:01:00.479Z,-2.47
2023-01-21T09:04:04.403Z,-2.39
2023-01-21T09:07:07.822Z,-2.29
2023-01-21T09:10:12.025Z,-2.13
2023-01-21T09:13:17.338Z,-2.20
2023-01-21T09:16:23.657Z,-2.38
2023-01-21T09:19:27.519Z,-2.25
2023-01-21T09:22:31.027Z,-2.16
2023-01-21T09:25:35.379Z,-2.41
2023-01-21T09:28:42.361Z,-3.04
2023-01-21T09:31:45.852Z,-2.25
2023-01-21T09:34:49.441Z,-1.93
2023-01-21T09:37:52.855Z,-2.18
2023-01-21T09:41:14.183Z,-1.99
2023-01-21T09:44:26.333Z,-2.14
2023-01-21T09:47:34.914Z,-2.10
2023-01-21T09:50:41.327Z,-1.88
2023-01-21T09:53:51.644Z,-2.06
2023-01-21T09:57:36.976Z,-1.82
2023-01-21T10:00:46.993Z,-2.16
2023-01-21T10:03:56.583Z,-1.66
2023-01-21T10:07:03.146Z,-1.59
2023-01-21T10:10:20.326Z,-1.83
2023-01-21T10:13:44.355Z,-1.76
2023-01-21T10:17:01.139Z,-1.62
2023-01-21T10:20:14.568Z,-1.81
2023-01-21T10:23:23.674Z,-1.90
2023-01-21T10:26:29.275Z,-1.75
2023-01-21T10:29:42.744Z,-1.78
2023-01-21T10:34:20.412Z,-1.85
2023-01-21T10:37:33.846Z,-2.34
2023-01-21T10:40:46.435Z,-1.78
2023-01-21T10:43:57.380Z,-1.65
2023-01-21T10:47:07.874Z,-1.94
2023-01-21T10:50:29.745Z,-1.85
2023-01-21T10:53:39.890Z,-1.87
2023-01-21T10:56:49.920Z,-1.79
2023-01-21T11:00:21.790Z,-2.12
2023-01-21T11:03:34.085Z,-2.07
2023-01-21T11:06:39.852Z,-1.79
2023-01-21T11:09:46.710Z,-2.15
2023-01-21T11:12:50.586Z,-1.86
2023-01-21T11:15:55.937Z,-2.04
2023-01-21T11:18:59.612Z,-1.92
2023-01-21T11:22:07.356Z,-1.46
2023-01-21T11:25:26.939Z,-1.88
2023-01-21T11:28:31.570Z,-1.73
2023-01-21T11:31:35.578Z,-2.00
2023-01-21T11:34:45.449Z,-1.92
2023-01-21T11:37:50.315Z,-1.90
2023-01-21T11:41:05.284Z,-1.76
2023-01-21T11:44:11.481Z,-1.75
2023-01-21T11:47:29.187Z,-1.71
2023-01-21T11:50:35.720Z,-1.77
2023-01-21T11:53:41.308Z,-1.65
2023-01-21T11:56:55.666Z,-1.92
2023-01-21T12:00:07.677Z,-1.85
2023-01-21T12:03:18.768Z,-1.94
2023-01-21T12:06:24.541Z,-1.84
2023-01-21T12:09:30.624Z,-1.92
2023-01-21T12:12:46.685Z,-1.73
2023-01-21T12:16:04.752Z,-1.91
2023-01-21T12:19:45.908Z,-1.34
2023-01-21T12:23:19.983Z,-1.80
2023-01-21T12:26:38.601Z,-1.73
2023-01-21T12:29:55.284Z,-1.66
2023-01-21T12:33:04.398Z,-1.55
2023-01-21T12:36:15.447Z,-1.58
2023-01-21T12:39:22.671Z,-1.63
2023-01-21T12:42:34.839Z,-1.62
2023-01-21T12:45:42.482Z,-1.40
2023-01-21T12:48:51.915Z,-1.34
2023-01-21T12:52:00.721Z,-1.56
2023-01-21T12:55:15.007Z,-1.78
2023-01-21T12:58:22.512Z,-1.43
2023-01-21T13:01:43.795Z,-1.57
2023-01-21T13:04:55.464Z,-1.29
2023-01-21T13:08:06.151Z,-1.54
2023-01-21T13:11:19.793Z,-1.79
2023-01-21T13:14:31.088Z,-1.91
2023-01-21T13:17:36.349Z,-1.69
2023-01-21T13:20:44.814Z,-1.60
2023-01-21T13:23:52.455Z,-1.59
2023-01-21T13:27:07.238Z,-1.72
2023-01-21T13:30:24.885Z,-1.97
2023-01-21T13:33:34.984Z,-1.82
2023-01-21T13:36:48.385Z,-1.92
2023-01-21T13:39:55.003Z,-1.77
2023-01-21T13:43:11.746Z,-1.92
2023-01-21T13:46:29.976Z,-1.68
2023-01-21T13:49:53.688Z,-1.92
2023-01-21T13:53:27.486Z,-1.75
2023-01-21T13:56:41.625Z,-1.83
2023-01-21T13:59:50.666Z,-1.81
2023-01-21T14:03:02.278Z,-1.62
2023-01-21T14:06:11.104Z,-1.60
2023-01-21T14:09:24.539Z,-1.82
2023-01-21T14:12:45.470Z,-1.87
2023-01-21T14:16:13.714Z,-1.96
2023-01-21T14:19:36.906Z,-1.85
2023-01-21T14:22:56.618Z,-1.73
2023-01-21T14:26:16.277Z,-2.23
2023-01-21T14:29:31.055Z,-1.69
2023-01-21T14:32:41.879Z,-1.62
2023-01-21T14:35:53.681Z,-1.98
2023-01-21T14:39:08.549Z,-1.86
2023-01-21T14:42:14.749Z,-1.91
2023-01-21T14:45:22.043Z,-1.90
2023-01-21T14:48:30.656Z,-2.05
2023-01-21T14:51:37.615Z,-1.83
2023-01-21T14:54:44.203Z,-1.97
2023-01-21T14:57:49.111Z,-1.73
2023-01-21T15:00:53.841Z,-1.93
2023-01-21T15:03:59.161Z,-2.11
2023-01-21T15:07:09.785Z,-1.86
2023-01-21T15:10:18.887Z,-2.11
2023-01-21T15:13:31.801Z,-2.10
2023-01-21T15:16:37.428Z,-2.05
2023-01-21T15:19:40.879Z,-1.99
2023-01-21T15:22:46.800Z,-2.00
2023-01-21T15:26:05.099Z,-1.90
2023-01-21T15:29:33.989Z,-1.89
2023-01-21T15:32:40.875Z,-1.98
2023-01-21T15:35:44.739Z,-2.02
2023-01-21T15:38:50.610Z,-1.78
2023-01-21T15:42:06.281Z,-1.94
2023-01-21T15:45:24.758Z,-1.96
2023-01-21T15:48:48.877Z,-2.40
2023-01-21T15:52:06.367Z,-2.00
2023-01-21T15:55:30.411Z,-1.99
2023-01-21T15:58:46.336Z,-1.85
2023-01-21T16:02:13.551Z,-2.01
2023-01-21T16:05:26.198Z,-1.87
2023-01-21T16:08:44.201Z,-2.10
2023-01-21T16:12:05.008Z,-1.87
2023-01-21T16:15:16.392Z,-2.07
2023-01-21T16:18:29.627Z,-2.04
2023-01-21T16:21:35.341Z,-2.38
2023-01-21T16:24:43.299Z,-2.15
2023-01-21T16:27:49.590Z,-2.20
2023-01-21T16:34:25.746Z,-2.30
2023-01-21T16:37:31.299Z,-2.25
2023-01-21T16:40:35.013Z,-2.03
2023-01-21T16:43:44.525Z,-2.10
2023-01-21T16:46:51.748Z,-2.22
2023-01-21T16:49:56.576Z,-2.20
2023-01-21T16:53:06.701Z,-2.10
2023-01-21T16:56:25.560Z,-2.07
2023-01-21T16:59:30.977Z,-2.12
2023-01-21T17:02:35.342Z,-2.10
2023-01-21T17:05:41.729Z,-2.15
2023-01-21T17:08:48.192Z,-1.84
2023-01-21T17:11:51.916Z,-2.14
2023-01-21T17:14:59.314Z,-2.16
2023-01-21T17:18:05.020Z,-2.16
2023-01-21T17:21:12.924Z,-2.14
2023-01-21T17:24:46.901Z,-2.13
2023-01-21T17:27:51.640Z,-2.20
2023-01-21T17:31:09.675Z,-2.12
2023-01-21T17:34:22.170Z,-1.95
2023-01-21T17:37:52.169Z,-2.11
2023-01-21T17:41:02.074Z,-2.19
2023-01-21T17:44:16.575Z,-2.18
2023-01-21T17:47:24.687Z,-2.15
2023-01-21T17:50:30.292Z,-2.26
2023-01-21T17:53:41.245Z,-2.06
2023-01-21T17:56:51.579Z,-2.16
2023-01-21T17:59:55.024Z,-2.22
2023-01-21T18:02:58.974Z,-2.20
2023-01-21T18:06:03.405Z,-2.29
2023-01-21T18:09:20.640Z,-2.26
2023-01-21T18:12:23.987Z,-2.30
2023-01-21T18:15:27.690Z,-2.27
2023-01-21T18:18:33.501Z,-2.35
2023-01-21T18:21:36.855Z,-2.25
2023-01-21T18:24:41.806Z,-2.26
2023-01-21T18:27:47.441Z,-2.26
2023-01-21T18:30:51.907Z,-1.84
2023-01-21T18:33:55.471Z,-2.32
2023-01-21T18:36:59.023Z,-2.33
2023-01-21T18:40:05.711Z,-2.30
2023-01-21T18:43:10.567Z,-2.17
2023-01-21T18:46:16.194Z,-2.36
2023-01-21T18:49:21.552Z,-2.38
2023-01-21T18:52:29.025Z,-2.22
2023-01-21T18:55:33.971Z,-2.30
2023-01-21T18:58:37.471Z,-2.32
2023-01-21T19:01:41.090Z,-2.35
2023-01-21T19:04:44.753Z,-2.31
2023-01-21T19:07:48.562Z,-2.24
2023-01-21T19:10:53.586Z,-2.30
2023-01-21T19:13:57.028Z,-2.40
2023-01-21T19:17:00.746Z,-2.39
2023-01-21T19:20:04.369Z,-2.62
2023-01-21T19:23:12.126Z,-2.46
2023-01-21T19:26:17.286Z,-2.49
2023-01-21T19:29:24.969Z,-2.51
2023-01-21T19:32:28.387Z,-2.36
2023-01-21T19:35:35.102Z,-2.36
2023-01-21T19:38:38.915Z,-3.00
2023-01-21T19:41:43.788Z,-2.37
2023-01-21T19:44:47.366Z,-2.41
2023-01-21T19:47:52.316Z,-2.18
2023-01-21T19:50:55.679Z,-2.31
2023-01-21T19:53:59.775Z,-2.40
2023-01-21T19:57:05.262Z,-2.30
2023-01-21T20:00:18.135Z,-2.39
2023-01-21T20:03:23.246Z,-2.34
2023-01-21T20:06:26.944Z,-2.25
2023-01-21T20:09:30.400Z,-2.25
2023-01-21T20:12:35.200Z,-2.17
2023-01-21T20:15:39.097Z,-2.25
2023-01-21T20:18:43.496Z,-2.34
2023-01-21T20:21:59.968Z,-2.25
2023-01-21T20:25:05.603Z,-2.28
2023-01-21T20:28:18.327Z,-2.22
2023-01-21T20:31:21.998Z,-2.22
2023-01-21T20:34:27.654Z,-2.69
2023-01-21T20:37:31.123Z,-2.35
2023-01-21T20:40:34.790Z,-2.08
2023-01-21T20:43:39.969Z,-2.21
2023-01-21T20:46:45.529Z,-2.24
2023-01-21T20:49:48.943Z,-2.11
2023-01-21T20:52:55.044Z,-2.04
2023-01-21T20:56:02.500Z,-2.20
2023-01-21T20:59:07.263Z,-2.18
2023-01-21T21:02:12.820Z,-2.16
2023-01-21T21:05:18.456Z,-1.99
2023-01-21T21:08:23.206Z,-2.32
2023-01-21T21:11:26.919Z,-2.18
2023-01-21T21:14:31.989Z,-2.21
2023-01-21T21:17:35.413Z,-2.16
2023-01-21T21:20:39.941Z,-2.25
2023-01-21T21:23:46.532Z,-2.20
2023-01-21T21:26:50.292Z,-2.14
2023-01-21T21:29:59.221Z,-2.14
2023-01-21T21:33:03.114Z,-2.17
2023-01-21T21:36:11.513Z,-2.15
2023-01-21T21:39:19.384Z,-2.13
2023-01-21T21:42:40.186Z,-2.31
2023-01-21T21:45:59.221Z,-2.41
2023-01-21T21:49:02.739Z,-2.19
2023-01-21T21:52:06.196Z,-2.18
2023-01-21T21:55:14.484Z,-2.06
2023-01-21T21:58:17.950Z,-2.04
2023-01-21T22:01:24.991Z,-2.05
2023-01-21T22:04:28.420Z,-2.04
2023-01-21T22:07:32.247Z,-1.99
2023-01-21T22:10:35.757Z,-2.05
2023-01-21T22:13:40.362Z,-2.18
2023-01-21T22:16:45.788Z,-2.12
2023-01-21T22:19:49.354Z,-2.00
2023-01-21T22:22:52.921Z,-2.03
2023-01-21T22:25:56.568Z,-1.91
2023-01-21T22:29:00.060Z,-2.00
2023-01-21T22:34:18.067Z,-2.00
2023-01-21T22:37:21.530Z,-1.93
2023-01-21T22:40:25.249Z,-1.92
2023-01-21T22:43:28.662Z,-2.01
2023-01-21T22:46:33.759Z,-1.85
2023-01-21T22:49:38.623Z,-1.83
2023-01-21T22:52:42.498Z,-1.98
2023-01-21T22:55:45.898Z,-1.99
2023-01-21T22:58:49.610Z,-1.87
2023-01-21T23:01:53.129Z,-1.86
2023-01-21T23:04:57.967Z,-1.89
2023-01-21T23:08:01.397Z,-1.97
2023-01-21T23:11:06.461Z,-1.85
2023-01-21T23:14:11.033Z,-2.05
2023-01-21T23:17:16.643Z,-2.03
2023-01-21T23:20:22.012Z,-2.09
2023-01-21T23:23:25.781Z,-1.68
2023-01-21T23:26:29.207Z,-1.82
2023-01-21T23:29:32.608Z,-1.64
2023-01-21T23:32:36.039Z,-1.78
2023-01-21T23:35:41.020Z,-1.93
2023-01-21T23:38:45.081Z,-1.75
2023-01-21T23:41:48.678Z,-1.86
2023-01-21T23:44:52.265Z,-1.87
2023-01-21T23:47:55.884Z,-1.42
2023-01-21T23:51:04.748Z,-1.76
2023-01-21T23:54:08.408Z,-1.80
2023-01-21T23:57:12.746Z,-1.73
